sensor_id;sensor_type;location;lat;lon;timestamp;pressure;altitude;pressure_sealevel;temperature;humidity
30343;BME280;17145;49.902;8.680;'2023-09-19 01:57:59';99490;;;18;53
30343;BME280;17145;49.902;8.680;'2023-09-19 02:00:32';99490;;;18;53
30343;BME280;17145;49.902;8.680;'2023-09-19 02:03:00';99490;;;18;53
30343;BME280;17145;49.902;8.680;'2023-09-19 02:05:29';99500;;;18;53
30343;BME280;17145;49.902;8.680;'2023-09-19 02:07:57';99500;;;18;53
30343;BME280;17145;49.902;8.680;'2023-09-19 02:10:25';99500;;;18;53
30343;BME280;17145;49.902;8.680;'2023-09-19 02:12:54';99490;;;18;53
30343;BME280;17145;49.902;8.680;'2023-09-19 02:15:21';99490;;;18;53
30343;BME280;17145;49.902;8.680;'2023-09-19 02:17:49';99500;;;18;53
30343;BME280;17145;49.902;8.680;'2023-09-19 02:20:16';99500;;;18;53
30343;BME280;17145;49.902;8.680;'2023-09-19 02:22:44';99500;;;18;54
30343;BME280;17145;49.902;8.680;'2023-09-19 02:25:12';99490;;;18;53
30343;BME280;17145;49.902;8.680;'2023-09-19 02:27:39';99490;;;18;53
30343;BME280;17145;49.902;8.680;'2023-09-19 02:30:08';99500;;;18;53
30343;BME280;17145;49.902;8.680;'2023-09-19 02:32:35';99500;;;18;53
30343;BME280;17145;49.902;8.680;'2023-09-19 02:35:03';99500;;;18;53
30343;BME280;17145;49.902;8.680;'2023-09-19 02:37:31';99500;;;18;53
30343;BME280;17145;49.902;8.680;'2023-09-19 02:39:58';99500;;;18;54
30343;BME280;17145;49.902;8.680;'2023-09-19 02:42:26';99500;;;18;53
30343;BME280;17145;49.902;8.680;'2023-09-19 02:44:53';99510;;;18;54
30343;BME280;17145;49.902;8.680;'2023-09-19 02:47:20';99510;;;18;53
30343;BME280;17145;49.902;8.680;'2023-09-19 02:49:48';99510;;;18;53
30343;BME280;17145;49.902;8.680;'2023-09-19 02:52:17';99510;;;18;53
30343;BME280;17145;49.902;8.680;'2023-09-19 02:54:44';99510;;;18;53
30343;BME280;17145;49.902;8.680;'2023-09-19 02:57:12';99520;;;18;53
30343;BME280;17145;49.902;8.680;'2023-09-19 02:59:39';99520;;;18;54
30343;BME280;17145;49.902;8.680;'2023-09-19 03:02:07';99520;;;18;54
30343;BME280;17145;49.902;8.680;'2023-09-19 03:04:36';99530;;;18;54
30343;BME280;17145;49.902;8.680;'2023-09-19 03:07:03';99530;;;18;54
30343;BME280;17145;49.902;8.680;'2023-09-19 03:09:31';99530;;;18;54
30343;BME280;17145;49.902;8.680;'2023-09-19 03:12:04';99530;;;18;54
30343;BME280;17145;49.902;8.680;'2023-09-19 03:14:42';99530;;;18;54
30343;BME280;17145;49.902;8.680;'2023-09-19 03:20:01';99540;;;18;54
30343;BME280;17145;49.902;8.680;'2023-09-19 03:25:17';99550;;;18;54
30343;BME280;17145;49.902;8.680;'2023-09-19 03:27:57';99560;;;18;54
30343;BME280;17145;49.902;8.680;'2023-09-19 03:30:31';99560;;;18;54
30343;BME280;17145;49.902;8.680;'2023-09-19 03:32:59';99560;;;18;54
30343;BME280;17145;49.902;8.680;'2023-09-19 03:35:27';99560;;;18;54
30343;BME280;17145;49.902;8.680;'2023-09-19 03:37:54';99560;;;18;54
30343;BME280;17145;49.902;8.680;'2023-09-19 03:40:22';99570;;;18;54
30343;BME280;17145;49.902;8.680;'2023-09-19 03:42:57';99570;;;17;54
30343;BME280;17145;49.902;8.680;'2023-09-19 03:45:33';99570;;;18;54
30343;BME280;17145;49.902;8.680;'2023-09-19 03:48:13';99570;;;18;54
30343;BME280;17145;49.902;8.680;'2023-09-19 03:50:49';99570;;;18;54
30343;BME280;17145;49.902;8.680;'2023-09-19 03:53:23';99580;;;18;54
30343;BME280;17145;49.902;8.680;'2023-09-19 03:55:53';99580;;;18;54
30343;BME280;17145;49.902;8.680;'2023-09-19 03:58:27';99570;;;18;54
30343;BME280;17145;49.902;8.680;'2023-09-19 04:00:56';99580;;;18;54
30343;BME280;17145;49.902;8.680;'2023-09-19 04:03:24';99580;;;18;54
30343;BME280;17145;49.902;8.680;'2023-09-19 04:05:53';99590;;;18;54
30343;BME280;17145;49.902;8.680;'2023-09-19 04:08:22';99590;;;18;54
30343;BME280;17145;49.902;8.680;'2023-09-19 04:10:49';99600;;;18;54
30343;BME280;17145;49.902;8.680;'2023-09-19 04:13:17';99600;;;18;55
30343;BME280;17145;49.902;8.680;'2023-09-19 04:15:45';99600;;;18;55
30343;BME280;17145;49.902;8.680;'2023-09-19 04:18:12';99600;;;18;55
30343;BME280;17145;49.902;8.680;'2023-09-19 04:20:40';99610;;;18;55
30343;BME280;17145;49.902;8.680;'2023-09-19 04:23:09';99610;;;18;55
30343;BME280;17145;49.902;8.680;'2023-09-19 04:25:37';99610;;;18;55
30343;BME280;17145;49.902;8.680;'2023-09-19 04:28:04';99610;;;18;55
30343;BME280;17145;49.902;8.680;'2023-09-19 04:30:32';99620;;;18;55
30343;BME280;17145;49.902;8.680;'2023-09-19 04:33:00';99620;;;18;55
30343;BME280;17145;49.902;8.680;'2023-09-19 04:35:28';99620;;;18;55
30343;BME280;17145;49.902;8.680;'2023-09-19 04:37:55';99610;;;18;55
30343;BME280;17145;49.902;8.680;'2023-09-19 04:40:23';99620;;;18;55
30343;BME280;17145;49.902;8.680;'2023-09-19 04:42:55';99630;;;18;56
30343;BME280;17145;49.902;8.680;'2023-09-19 04:45:22';99640;;;18;56
30343;BME280;17145;49.902;8.680;'2023-09-19 04:47:50';99630;;;18;56
30343;BME280;17145;49.902;8.680;'2023-09-19 04:50:18';99630;;;18;55
30343;BME280;17145;49.902;8.680;'2023-09-19 04:52:47';99630;;;18;55
30343;BME280;17145;49.902;8.680;'2023-09-19 04:55:15';99630;;;18;55
30343;BME280;17145;49.902;8.680;'2023-09-19 04:57:46';99630;;;18;55
30343;BME280;17145;49.902;8.680;'2023-09-19 05:00:14';99640;;;18;55
30343;BME280;17145;49.902;8.680;'2023-09-19 05:02:41';99640;;;18;55
30343;BME280;17145;49.902;8.680;'2023-09-19 05:05:09';99640;;;18;55
30343;BME280;17145;49.902;8.680;'2023-09-19 05:07:36';99640;;;18;55
30343;BME280;17145;49.902;8.680;'2023-09-19 05:10:05';99640;;;18;55
30343;BME280;17145;49.902;8.680;'2023-09-19 05:12:33';99650;;;18;55
30343;BME280;17145;49.902;8.680;'2023-09-19 05:15:00';99650;;;18;55
30343;BME280;17145;49.902;8.680;'2023-09-19 05:17:28';99660;;;18;55
30343;BME280;17145;49.902;8.680;'2023-09-19 05:19:55';99660;;;17;55
30343;BME280;17145;49.902;8.680;'2023-09-19 05:22:23';99660;;;18;55
30343;BME280;17145;49.902;8.680;'2023-09-19 05:24:50';99660;;;17;55
30343;BME280;17145;49.902;8.680;'2023-09-19 05:27:18';99670;;;17;55
30343;BME280;17145;49.902;8.680;'2023-09-19 05:29:45';99670;;;17;55
30343;BME280;17145;49.902;8.680;'2023-09-19 05:32:13';99670;;;17;55
30343;BME280;17145;49.902;8.680;'2023-09-19 05:34:40';99670;;;17;56
30343;BME280;17145;49.902;8.680;'2023-09-19 05:37:08';99670;;;17;56
30343;BME280;17145;49.902;8.680;'2023-09-19 05:39:35';99670;;;17;55
30343;BME280;17145;49.902;8.680;'2023-09-19 05:42:03';99660;;;17;56
30343;BME280;17145;49.902;8.680;'2023-09-19 05:44:31';99670;;;17;56
30343;BME280;17145;49.902;8.680;'2023-09-19 05:46:58';99670;;;17;56
30343;BME280;17145;49.902;8.680;'2023-09-19 05:49:26';99670;;;17;56
30343;BME280;17145;49.902;8.680;'2023-09-19 05:51:53';99670;;;18;56
30343;BME280;17145;49.902;8.680;'2023-09-19 05:54:20';99670;;;18;56
30343;BME280;17145;49.902;8.680;'2023-09-19 05:56:48';99660;;;17;56
30343;BME280;17145;49.902;8.680;'2023-09-19 05:59:15';99670;;;17;56
30343;BME280;17145;49.902;8.680;'2023-09-19 06:01:43';99670;;;17;56
30343;BME280;17145;49.902;8.680;'2023-09-19 06:04:10';99670;;;17;56
30343;BME280;17145;49.902;8.680;'2023-09-19 06:06:38';99670;;;17;56
30343;BME280;17145;49.902;8.680;'2023-09-19 06:09:05';99670;;;17;56
30343;BME280;17145;49.902;8.680;'2023-09-19 06:11:33';99670;;;17;56
30343;BME280;17145;49.902;8.680;'2023-09-19 06:14:03';99660;;;17;57
30343;BME280;17145;49.902;8.680;'2023-09-19 06:16:31';99670;;;17;57
30343;BME280;17145;49.902;8.680;'2023-09-19 06:18:58';99660;;;17;57
30343;BME280;17145;49.902;8.680;'2023-09-19 06:21:25';99660;;;17;57
30343;BME280;17145;49.902;8.680;'2023-09-19 06:23:53';99670;;;17;56
30343;BME280;17145;49.902;8.680;'2023-09-19 06:26:20';99680;;;17;56
30343;BME280;17145;49.902;8.680;'2023-09-19 06:28:48';99680;;;17;56
30343;BME280;17145;49.902;8.680;'2023-09-19 06:31:15';99680;;;17;57
30343;BME280;17145;49.902;8.680;'2023-09-19 06:33:43';99680;;;17;56
30343;BME280;17145;49.902;8.680;'2023-09-19 06:36:10';99680;;;17;56
30343;BME280;17145;49.902;8.680;'2023-09-19 06:38:38';99690;;;17;56
30343;BME280;17145;49.902;8.680;'2023-09-19 06:41:05';99700;;;17;56
30343;BME280;17145;49.902;8.680;'2023-09-19 06:43:33';99700;;;17;56
30343;BME280;17145;49.902;8.680;'2023-09-19 06:46:00';99710;;;17;56
30343;BME280;17145;49.902;8.680;'2023-09-19 06:48:27';99710;;;17;56
30343;BME280;17145;49.902;8.680;'2023-09-19 06:50:55';99710;;;17;56
30343;BME280;17145;49.902;8.680;'2023-09-19 06:53:22';99720;;;17;55
30343;BME280;17145;49.902;8.680;'2023-09-19 06:55:51';99720;;;17;55
30343;BME280;17145;49.902;8.680;'2023-09-19 06:58:19';99720;;;17;55
30343;BME280;17145;49.902;8.680;'2023-09-19 07:00:46';99720;;;17;55
30343;BME280;17145;49.902;8.680;'2023-09-19 07:03:13';99720;;;17;55
30343;BME280;17145;49.902;8.680;'2023-09-19 07:05:41';99730;;;17;55
30343;BME280;17145;49.902;8.680;'2023-09-19 07:08:08';99730;;;17;55
30343;BME280;17145;49.902;8.680;'2023-09-19 07:10:36';99730;;;17;55
30343;BME280;17145;49.902;8.680;'2023-09-19 07:13:03';99730;;;17;55
30343;BME280;17145;49.902;8.680;'2023-09-19 07:15:31';99740;;;17;55
30343;BME280;17145;49.902;8.680;'2023-09-19 07:17:58';99740;;;17;55
30343;BME280;17145;49.902;8.680;'2023-09-19 07:20:26';99740;;;17;55
30343;BME280;17145;49.902;8.680;'2023-09-19 07:22:58';99740;;;17;55
30343;BME280;17145;49.902;8.680;'2023-09-19 07:25:26';99740;;;17;55
30343;BME280;17145;49.902;8.680;'2023-09-19 07:27:53';99730;;;17;55
30343;BME280;17145;49.902;8.680;'2023-09-19 07:30:21';99730;;;17;55
30343;BME280;17145;49.902;8.680;'2023-09-19 07:32:48';99730;;;17;55
30343;BME280;17145;49.902;8.680;'2023-09-19 07:35:15';99730;;;17;55
30343;BME280;17145;49.902;8.680;'2023-09-19 07:37:43';99730;;;17;54
30343;BME280;17145;49.902;8.680;'2023-09-19 07:40:10';99730;;;17;54
30343;BME280;17145;49.902;8.680;'2023-09-19 07:42:38';99740;;;17;54
30343;BME280;17145;49.902;8.680;'2023-09-19 07:45:07';99740;;;17;54
30343;BME280;17145;49.902;8.680;'2023-09-19 07:47:34';99740;;;16;54
30343;BME280;17145;49.902;8.680;'2023-09-19 07:50:01';99740;;;17;54
30343;BME280;17145;49.902;8.680;'2023-09-19 07:52:29';99740;;;17;54
30343;BME280;17145;49.902;8.680;'2023-09-19 07:54:56';99750;;;17;54
30343;BME280;17145;49.902;8.680;'2023-09-19 07:57:24';99760;;;17;54
30343;BME280;17145;49.902;8.680;'2023-09-19 07:59:51';99760;;;17;54
30343;BME280;17145;49.902;8.680;'2023-09-19 08:02:18';99760;;;17;54
30343;BME280;17145;49.902;8.680;'2023-09-19 08:04:46';99760;;;17;54
30343;BME280;17145;49.902;8.680;'2023-09-19 08:07:13';99770;;;17;54
30343;BME280;17145;49.902;8.680;'2023-09-19 08:09:41';99770;;;17;54
30343;BME280;17145;49.902;8.680;'2023-09-19 08:12:08';99770;;;17;54
30343;BME280;17145;49.902;8.680;'2023-09-19 08:14:40';99770;;;16;54
30343;BME280;17145;49.902;8.680;'2023-09-19 08:17:07';99770;;;17;53
30343;BME280;17145;49.902;8.680;'2023-09-19 08:19:35';99770;;;17;53
30343;BME280;17145;49.902;8.680;'2023-09-19 08:22:03';99770;;;17;53
30343;BME280;17145;49.902;8.680;'2023-09-19 08:24:30';99770;;;17;53
30343;BME280;17145;49.902;8.680;'2023-09-19 08:26:58';99780;;;17;53
30343;BME280;17145;49.902;8.680;'2023-09-19 08:29:25';99790;;;17;52
30343;BME280;17145;49.902;8.680;'2023-09-19 08:31:53';99780;;;17;52
30343;BME280;17145;49.902;8.680;'2023-09-19 08:34:20';99790;;;17;52
30343;BME280;17145;49.902;8.680;'2023-09-19 08:36:48';99790;;;17;52
30343;BME280;17145;49.902;8.680;'2023-09-19 08:39:15';99790;;;17;52
30343;BME280;17145;49.902;8.680;'2023-09-19 08:41:43';99800;;;17;52
30343;BME280;17145;49.902;8.680;'2023-09-19 08:44:10';99810;;;17;52
30343;BME280;17145;49.902;8.680;'2023-09-19 08:46:38';99820;;;17;51
30343;BME280;17145;49.902;8.680;'2023-09-19 08:49:05';99810;;;17;51
30343;BME280;17145;49.902;8.680;'2023-09-19 08:51:33';99810;;;17;51
30343;BME280;17145;49.902;8.680;'2023-09-19 08:54:01';99810;;;17;51
30343;BME280;17145;49.902;8.680;'2023-09-19 08:56:28';99820;;;17;51
30343;BME280;17145;49.902;8.680;'2023-09-19 08:58:55';99820;;;17;51
30343;BME280;17145;49.902;8.680;'2023-09-19 09:01:23';99820;;;17;51
30343;BME280;17145;49.902;8.680;'2023-09-19 09:03:50';99830;;;17;51
30343;BME280;17145;49.902;8.680;'2023-09-19 09:06:18';99830;;;17;51
30343;BME280;17145;49.902;8.680;'2023-09-19 09:08:45';99830;;;17;51
30343;BME280;17145;49.902;8.680;'2023-09-19 09:11:13';99840;;;17;51
30343;BME280;17145;49.902;8.680;'2023-09-19 09:13:40';99840;;;18;51
30343;BME280;17145;49.902;8.680;'2023-09-19 09:16:07';99840;;;17;51
30343;BME280;17145;49.902;8.680;'2023-09-19 09:18:35';99840;;;17;51
30343;BME280;17145;49.902;8.680;'2023-09-19 09:21:02';99840;;;17;51
30343;BME280;17145;49.902;8.680;'2023-09-19 09:23:30';99840;;;17;51
30343;BME280;17145;49.902;8.680;'2023-09-19 09:25:57';99850;;;17;51
30343;BME280;17145;49.902;8.680;'2023-09-19 09:28:25';99860;;;17;50
30343;BME280;17145;49.902;8.680;'2023-09-19 09:30:52';99860;;;17;50
30343;BME280;17145;49.902;8.680;'2023-09-19 09:33:20';99870;;;17;50
30343;BME280;17145;49.902;8.680;'2023-09-19 09:35:48';99880;;;17;50
30343;BME280;17145;49.902;8.680;'2023-09-19 09:38:15';99880;;;17;50
30343;BME280;17145;49.902;8.680;'2023-09-19 09:40:42';99880;;;17;49
30343;BME280;17145;49.902;8.680;'2023-09-19 09:43:10';99890;;;17;49
30343;BME280;17145;49.902;8.680;'2023-09-19 09:45:37';99890;;;18;48
30343;BME280;17145;49.902;8.680;'2023-09-19 09:48:05';99900;;;17;48
30343;BME280;17145;49.902;8.680;'2023-09-19 09:50:34';99900;;;17;48
30343;BME280;17145;49.902;8.680;'2023-09-19 09:53:01';99900;;;18;48
30343;BME280;17145;49.902;8.680;'2023-09-19 09:55:29';99900;;;17;48
30343;BME280;17145;49.902;8.680;'2023-09-19 09:57:56';99900;;;18;47
30343;BME280;17145;49.902;8.680;'2023-09-19 10:00:24';99900;;;17;48
30343;BME280;17145;49.902;8.680;'2023-09-19 10:02:51';99900;;;17;47
30343;BME280;17145;49.902;8.680;'2023-09-19 10:05:19';99920;;;18;47
30343;BME280;17145;49.902;8.680;'2023-09-19 10:07:46';99920;;;17;46
30343;BME280;17145;49.902;8.680;'2023-09-19 10:10:15';99920;;;17;47
30343;BME280;17145;49.902;8.680;'2023-09-19 10:12:43';99920;;;17;47
30343;BME280;17145;49.902;8.680;'2023-09-19 10:15:11';99920;;;17;47
30343;BME280;17145;49.902;8.680;'2023-09-19 10:17:38';99920;;;17;47
30343;BME280;17145;49.902;8.680;'2023-09-19 10:20:07';99920;;;17;48
30343;BME280;17145;49.902;8.680;'2023-09-19 10:22:35';99910;;;17;48
30343;BME280;17145;49.902;8.680;'2023-09-19 10:25:05';99920;;;17;46
30343;BME280;17145;49.902;8.680;'2023-09-19 10:27:33';99930;;;17;46
30343;BME280;17145;49.902;8.680;'2023-09-19 10:30:00';99930;;;17;47
30343;BME280;17145;49.902;8.680;'2023-09-19 10:32:29';99930;;;17;47
30343;BME280;17145;49.902;8.680;'2023-09-19 10:34:56';99930;;;17;46
30343;BME280;17145;49.902;8.680;'2023-09-19 10:37:24';99920;;;17;46
30343;BME280;17145;49.902;8.680;'2023-09-19 10:39:51';99920;;;17;46
30343;BME280;17145;49.902;8.680;'2023-09-19 10:42:18';99920;;;18;46
30343;BME280;17145;49.902;8.680;'2023-09-19 10:44:46';99920;;;17;46
30343;BME280;17145;49.902;8.680;'2023-09-19 10:47:15';99920;;;18;46
30343;BME280;17145;49.902;8.680;'2023-09-19 10:49:53';99920;;;18;46
30343;BME280;17145;49.902;8.680;'2023-09-19 10:52:25';99930;;;18;45
30343;BME280;17145;49.902;8.680;'2023-09-19 10:54:57';99920;;;17;46
30343;BME280;17145;49.902;8.680;'2023-09-19 10:57:28';99930;;;17;45
30343;BME280;17145;49.902;8.680;'2023-09-19 10:59:57';99920;;;18;44
30343;BME280;17145;49.902;8.680;'2023-09-19 11:02:26';99940;;;18;44
30343;BME280;17145;49.902;8.680;'2023-09-19 11:04:54';99930;;;17;43
30343;BME280;17145;49.902;8.680;'2023-09-19 11:07:22';99940;;;17;42
30343;BME280;17145;49.902;8.680;'2023-09-19 11:09:50';99930;;;18;41
30343;BME280;17145;49.902;8.680;'2023-09-19 11:12:18';99930;;;18;41
30343;BME280;17145;49.902;8.680;'2023-09-19 11:14:46';99930;;;18;40
30343;BME280;17145;49.902;8.680;'2023-09-19 11:17:13';99940;;;18;41
30343;BME280;17145;49.902;8.680;'2023-09-19 11:19:41';99930;;;18;41
30343;BME280;17145;49.902;8.680;'2023-09-19 11:22:10';99940;;;18;41
30343;BME280;17145;49.902;8.680;'2023-09-19 11:24:43';99940;;;18;41
30343;BME280;17145;49.902;8.680;'2023-09-19 11:27:13';99940;;;18;41
30343;BME280;17145;49.902;8.680;'2023-09-19 11:29:42';99940;;;18;41
30343;BME280;17145;49.902;8.680;'2023-09-19 11:32:20';99930;;;18;40
30343;BME280;17145;49.902;8.680;'2023-09-19 11:34:50';99940;;;18;40
30343;BME280;17145;49.902;8.680;'2023-09-19 11:37:18';99930;;;18;39
30343;BME280;17145;49.902;8.680;'2023-09-19 11:39:52';99930;;;18;39
30343;BME280;17145;49.902;8.680;'2023-09-19 11:45:11';99930;;;18;40
30343;BME280;17145;49.902;8.680;'2023-09-19 11:47:43';99930;;;18;39
30343;BME280;17145;49.902;8.680;'2023-09-19 11:50:11';99930;;;18;39
30343;BME280;17145;49.902;8.680;'2023-09-19 11:52:45';99930;;;19;39
30343;BME280;17145;49.902;8.680;'2023-09-19 11:55:12';99930;;;19;38
30343;BME280;17145;49.902;8.680;'2023-09-19 11:57:40';99930;;;19;37
30343;BME280;17145;49.902;8.680;'2023-09-19 12:00:10';99930;;;19;37
30343;BME280;17145;49.902;8.680;'2023-09-19 12:02:38';99930;;;19;37
30343;BME280;17145;49.902;8.680;'2023-09-19 12:05:13';99930;;;19;37
30343;BME280;17145;49.902;8.680;'2023-09-19 12:07:41';99920;;;20;36
30343;BME280;17145;49.902;8.680;'2023-09-19 12:10:08';99920;;;20;36
30343;BME280;17145;49.902;8.680;'2023-09-19 12:12:41';99930;;;20;36
30343;BME280;17145;49.902;8.680;'2023-09-19 12:15:11';99920;;;20;35
30343;BME280;17145;49.902;8.680;'2023-09-19 12:17:42';99930;;;20;35
30343;BME280;17145;49.902;8.680;'2023-09-19 12:20:13';99930;;;20;37
30343;BME280;17145;49.902;8.680;'2023-09-19 12:22:41';99930;;;20;36
30343;BME280;17145;49.902;8.680;'2023-09-19 12:25:09';99920;;;20;35
30343;BME280;17145;49.902;8.680;'2023-09-19 12:27:38';99920;;;20;34
30343;BME280;17145;49.902;8.680;'2023-09-19 12:30:10';99920;;;20;35
30343;BME280;17145;49.902;8.680;'2023-09-19 12:32:40';99920;;;20;34
30343;BME280;17145;49.902;8.680;'2023-09-19 12:35:08';99920;;;19;35
30343;BME280;17145;49.902;8.680;'2023-09-19 12:37:37';99920;;;20;34
30343;BME280;17145;49.902;8.680;'2023-09-19 12:40:07';99940;;;20;35
30343;BME280;17145;49.902;8.680;'2023-09-19 12:42:40';99930;;;19;35
30343;BME280;17145;49.902;8.680;'2023-09-19 12:45:09';99940;;;19;36
30343;BME280;17145;49.902;8.680;'2023-09-19 12:47:36';99940;;;19;36
30343;BME280;17145;49.902;8.680;'2023-09-19 12:50:06';99940;;;19;36
30343;BME280;17145;49.902;8.680;'2023-09-19 12:52:39';99940;;;19;36
30343;BME280;17145;49.902;8.680;'2023-09-19 12:55:08';99940;;;19;36
30343;BME280;17145;49.902;8.680;'2023-09-19 12:57:35';99940;;;19;36
30343;BME280;17145;49.902;8.680;'2023-09-19 13:00:06';99940;;;20;36
30343;BME280;17145;49.902;8.680;'2023-09-19 13:02:33';99920;;;20;35
30343;BME280;17145;49.902;8.680;'2023-09-19 13:10:30';99920;;;21;33
30343;BME280;17145;49.902;8.680;'2023-09-19 13:18:19';99900;;;21;33
30343;BME280;17145;49.902;8.680;'2023-09-19 13:20:47';99900;;;20;33
30343;BME280;17145;49.902;8.680;'2023-09-19 13:23:20';99890;;;20;33
30343;BME280;17145;49.902;8.680;'2023-09-19 13:25:49';99900;;;20;33
30343;BME280;17145;49.902;8.680;'2023-09-19 13:28:28';99890;;;19;33
30343;BME280;17145;49.902;8.680;'2023-09-19 13:30:55';99890;;;20;33
30343;BME280;17145;49.902;8.680;'2023-09-19 13:33:24';99890;;;20;34
30343;BME280;17145;49.902;8.680;'2023-09-19 13:44:22';99880;;;20;34
30343;BME280;17145;49.902;8.680;'2023-09-19 13:46:55';99880;;;21;33
30343;BME280;17145;49.902;8.680;'2023-09-19 13:49:27';99880;;;21;34
30343;BME280;17145;49.902;8.680;'2023-09-19 13:51:56';99890;;;21;32
30343;BME280;17145;49.902;8.680;'2023-09-19 13:54:23';99880;;;21;32
30343;BME280;17145;49.902;8.680;'2023-09-19 13:56:52';99880;;;21;32
30343;BME280;17145;49.902;8.680;'2023-09-19 13:59:20';99880;;;22;32
30343;BME280;17145;49.902;8.680;'2023-09-19 14:04:28';99870;;;21;31
30343;BME280;17145;49.902;8.680;'2023-09-19 14:06:57';99870;;;22;31
30343;BME280;17145;49.902;8.680;'2023-09-19 14:09:25';99870;;;21;31
30343;BME280;17145;49.902;8.680;'2023-09-19 14:11:52';99870;;;21;31
30343;BME280;17145;49.902;8.680;'2023-09-19 14:14:23';99870;;;22;31
30343;BME280;17145;49.902;8.680;'2023-09-19 14:16:53';99870;;;22;30
30343;BME280;17145;49.902;8.680;'2023-09-19 14:19:22';99870;;;22;31
30343;BME280;17145;49.902;8.680;'2023-09-19 14:21:56';99860;;;22;30
30343;BME280;17145;49.902;8.680;'2023-09-19 14:24:25';99870;;;22;31
30343;BME280;17145;49.902;8.680;'2023-09-19 14:26:53';99860;;;22;31
30343;BME280;17145;49.902;8.680;'2023-09-19 14:29:26';99860;;;22;30
30343;BME280;17145;49.902;8.680;'2023-09-19 14:31:55';99860;;;22;30
30343;BME280;17145;49.902;8.680;'2023-09-19 14:34:25';99880;;;22;30
30343;BME280;17145;49.902;8.680;'2023-09-19 14:37:04';99860;;;22;29
30343;BME280;17145;49.902;8.680;'2023-09-19 14:39:32';99850;;;22;30
30343;BME280;17145;49.902;8.680;'2023-09-19 14:41:59';99850;;;23;30
30343;BME280;17145;49.902;8.680;'2023-09-19 14:44:27';99840;;;23;29
30343;BME280;17145;49.902;8.680;'2023-09-19 14:46:55';99840;;;23;27
30343;BME280;17145;49.902;8.680;'2023-09-19 14:49:22';99860;;;23;28
30343;BME280;17145;49.902;8.680;'2023-09-19 14:51:55';99850;;;23;27
30343;BME280;17145;49.902;8.680;'2023-09-19 14:54:23';99840;;;23;27
30343;BME280;17145;49.902;8.680;'2023-09-19 14:56:50';99830;;;23;27
30343;BME280;17145;49.902;8.680;'2023-09-19 14:59:28';99830;;;23;27
30343;BME280;17145;49.902;8.680;'2023-09-19 15:02:04';99820;;;23;27
30343;BME280;17145;49.902;8.680;'2023-09-19 15:04:32';99820;;;24;28
30343;BME280;17145;49.902;8.680;'2023-09-19 15:06:59';99830;;;24;27
30343;BME280;17145;49.902;8.680;'2023-09-19 15:09:28';99820;;;24;27
30343;BME280;17145;49.902;8.680;'2023-09-19 15:11:55';99810;;;24;27
30343;BME280;17145;49.902;8.680;'2023-09-19 15:14:24';99820;;;25;26
30343;BME280;17145;49.902;8.680;'2023-09-19 15:16:57';99820;;;24;26
30343;BME280;17145;49.902;8.680;'2023-09-19 15:19:35';99810;;;24;26
30343;BME280;17145;49.902;8.680;'2023-09-19 15:22:03';99810;;;24;27
30343;BME280;17145;49.902;8.680;'2023-09-19 15:24:30';99820;;;24;27
30343;BME280;17145;49.902;8.680;'2023-09-19 15:26:57';99810;;;24;27
30343;BME280;17145;49.902;8.680;'2023-09-19 15:29:25';99810;;;23;27
30343;BME280;17145;49.902;8.680;'2023-09-19 15:31:53';99810;;;23;28
30343;BME280;17145;49.902;8.680;'2023-09-19 15:34:20';99810;;;23;28
30343;BME280;17145;49.902;8.680;'2023-09-19 15:36:48';99810;;;23;28
30343;BME280;17145;49.902;8.680;'2023-09-19 15:39:15';99810;;;23;28
30343;BME280;17145;49.902;8.680;'2023-09-19 15:41:44';99800;;;23;28
30343;BME280;17145;49.902;8.680;'2023-09-19 15:44:12';99800;;;24;28
30343;BME280;17145;49.902;8.680;'2023-09-19 15:46:39';99800;;;23;28
30343;BME280;17145;49.902;8.680;'2023-09-19 15:49:06';99800;;;23;28
30343;BME280;17145;49.902;8.680;'2023-09-19 15:51:34';99800;;;23;28
30343;BME280;17145;49.902;8.680;'2023-09-19 15:54:01';99800;;;24;28
30343;BME280;17145;49.902;8.680;'2023-09-19 15:56:29';99810;;;23;28
30343;BME280;17145;49.902;8.680;'2023-09-19 15:58:56';99810;;;23;28
30343;BME280;17145;49.902;8.680;'2023-09-19 16:01:24';99800;;;23;28
30343;BME280;17145;49.902;8.680;'2023-09-19 16:03:51';99810;;;23;28
30343;BME280;17145;49.902;8.680;'2023-09-19 16:06:18';99810;;;23;29
30343;BME280;17145;49.902;8.680;'2023-09-19 16:08:46';99800;;;23;29
30343;BME280;17145;49.902;8.680;'2023-09-19 16:11:14';99800;;;22;29
30343;BME280;17145;49.902;8.680;'2023-09-19 16:13:41';99800;;;22;29
30343;BME280;17145;49.902;8.680;'2023-09-19 16:16:09';99800;;;22;29
30343;BME280;17145;49.902;8.680;'2023-09-19 16:18:36';99800;;;22;30
30343;BME280;17145;49.902;8.680;'2023-09-19 16:21:04';99800;;;22;30
30343;BME280;17145;49.902;8.680;'2023-09-19 16:23:35';99790;;;22;30
30343;BME280;17145;49.902;8.680;'2023-09-19 16:26:03';99800;;;22;30
30343;BME280;17145;49.902;8.680;'2023-09-19 16:28:30';99790;;;23;30
30343;BME280;17145;49.902;8.680;'2023-09-19 16:30:57';99780;;;23;29
30343;BME280;17145;49.902;8.680;'2023-09-19 16:33:25';99790;;;23;29
30343;BME280;17145;49.902;8.680;'2023-09-19 16:35:52';99790;;;23;29
30343;BME280;17145;49.902;8.680;'2023-09-19 16:38:19';99790;;;23;30
30343;BME280;17145;49.902;8.680;'2023-09-19 16:40:47';99780;;;23;30
30343;BME280;17145;49.902;8.680;'2023-09-19 16:43:14';99780;;;22;30
30343;BME280;17145;49.902;8.680;'2023-09-19 16:45:42';99770;;;22;30
30343;BME280;17145;49.902;8.680;'2023-09-19 16:48:09';99760;;;23;30
30343;BME280;17145;49.902;8.680;'2023-09-19 16:50:37';99760;;;23;30
30343;BME280;17145;49.902;8.680;'2023-09-19 16:53:04';99760;;;23;30
30343;BME280;17145;49.902;8.680;'2023-09-19 16:55:35';99760;;;23;30